Time;durP1;ratioP1;P1;durP2;ratioP2;P2;SDS_P1;SDS_P2;PMS_P1;PMS_P2;Temp;Humidity;BMP_temperature;BMP_pressure;BME280_temperature;BME280_humidity;BME280_pressure;Samples;Min_cycle;Max_cycle;Signal;HPM_P1;HPM_P2
2022/04/17 00:01:42;;;;;;;8.17;6.87;;;;;;;4.13;83.41;102166.38;5072021;28;20586;-77
2022/04/17 00:04:10;;;;;;;8.00;7.20;;;;;;;4.11;83.27;102168.50;5072020;28;20250;-75
2022/04/17 00:06:36;;;;;;;7.30;6.53;;;;;;;4.13;83.14;102168.28;5072996;28;20289;-76
2022/04/17 00:09:02;;;;;;;7.90;6.93;;;;;;;3.86;82.10;102151.50;5071833;28;20464;-73
2022/04/17 00:11:27;;;;;;;6.73;6.13;;;;;;;3.82;82.46;102147.63;5071827;28;20515;-77
2022/04/17 00:13:54;;;;;;;7.27;6.00;;;;;;;3.76;83.06;102152.06;5073116;28;20178;-77
2022/04/17 00:16:20;;;;;;;8.00;5.73;;;;;;;3.92;83.22;102144.41;5072941;28;20249;-73
2022/04/17 00:18:45;;;;;;;7.27;5.97;;;;;;;3.85;83.20;102142.56;5072805;28;20250;-78
2022/04/17 00:21:11;;;;;;;8.97;6.43;;;;;;;4.04;83.31;102154.22;5072895;28;20179;-76
2022/04/17 00:23:36;;;;;;;7.47;6.50;;;;;;;4.17;83.05;102148.66;5073139;28;20178;-74
2022/04/17 00:26:02;;;;;;;7.33;6.63;;;;;;;4.13;81.88;102136.63;5072756;28;20202;-72
2022/04/17 00:28:27;;;;;;;11.13;7.57;;;;;;;4.22;81.26;102141.75;5073425;28;20212;-72
2022/04/17 00:30:53;;;;;;;9.90;7.30;;;;;;;3.65;81.89;102135.75;5074002;28;20536;-72
2022/04/17 00:33:18;;;;;;;10.63;7.70;;;;;;;3.55;83.14;102134.38;5071622;28;20630;-73
2022/04/17 00:35:45;;;;;;;7.57;6.87;;;;;;;3.64;83.56;102140.31;5071432;28;20740;-74
2022/04/17 00:38:11;;;;;;;8.53;7.47;;;;;;;3.85;83.83;102133.66;5071275;28;20182;-72
2022/04/17 00:40:36;;;;;;;8.63;7.50;;;;;;;4.03;83.62;102130.09;5072720;28;20187;-72
2022/04/17 00:43:01;;;;;;;8.87;7.97;;;;;;;3.93;82.20;102129.84;5071239;28;20189;-72
2022/04/17 00:45:27;;;;;;;8.97;8.07;;;;;;;3.77;82.52;102121.28;5072741;28;20202;-72
2022/04/17 00:47:52;;;;;;;12.07;7.77;;;;;;;3.68;82.96;102128.00;5072315;28;20599;-72
2022/04/17 00:50:19;;;;;;;10.77;9.37;;;;;;;3.64;83.83;102131.38;5071037;28;20567;-73
2022/04/17 00:52:45;;;;;;;9.40;7.67;;;;;;;3.73;84.76;102132.72;5072289;28;20324;-72
2022/04/17 00:55:12;;;;;;;9.50;8.33;;;;;;;3.74;84.37;102128.97;5072146;28;20209;-73
2022/04/17 00:57:37;;;;;;;10.50;8.83;;;;;;;3.64;84.04;102134.91;5072053;28;20167;-74
2022/04/17 01:00:05;;;;;;;10.03;8.50;;;;;;;3.44;84.17;102132.38;5072174;28;20324;-73
2022/04/17 01:02:30;;;;;;;11.87;7.63;;;;;;;3.44;84.99;102124.28;5070763;28;20175;-73
2022/04/17 01:04:56;;;;;;;10.53;8.53;;;;;;;3.45;85.98;102128.63;5070604;28;20194;-72
2022/04/17 01:07:23;;;;;;;11.73;8.93;;;;;;;3.50;86.97;102109.91;5071700;28;20170;-72
2022/04/17 01:09:50;;;;;;;10.27;8.53;;;;;;;3.56;86.94;102103.59;5070625;28;20185;-73
2022/04/17 01:12:17;;;;;;;11.33;10.17;;;;;;;3.39;86.51;102109.81;5071906;28;20190;-72
2022/04/17 01:14:44;;;;;;;19.07;11.60;;;;;;;3.03;87.39;102099.72;5071758;28;20174;-77
2022/04/17 01:17:13;;;;;;;16.03;12.73;;;;;;;3.11;87.80;102104.84;5070360;28;20647;-72
2022/04/17 01:19:39;;;;;;;16.00;11.10;;;;;;;3.27;87.96;102096.19;5070399;28;20167;-74
2022/04/17 01:22:13;;;;;;;13.03;10.90;;;;;;;3.22;87.29;102094.16;5071692;28;20227;-75
2022/04/17 01:27:25;;;;;;;10.40;9.40;;;;;;;3.18;86.09;102105.63;5071971;28;20197;-72
2022/04/17 01:29:51;;;;;;;15.43;9.00;;;;;;;3.37;86.33;102099.22;5071541;28;20171;-72
2022/04/17 01:32:17;;;;;;;12.17;10.87;;;;;;;3.21;86.47;102099.78;5071389;28;20617;-72
2022/04/17 01:34:43;;;;;;;10.77;8.93;;;;;;;3.44;85.85;102099.16;5071279;28;20174;-72
2022/04/17 01:37:09;;;;;;;16.50;9.30;;;;;;;3.49;85.45;102110.97;5071004;28;20235;-73
2022/04/17 01:39:35;;;;;;;10.77;9.43;;;;;;;3.36;84.72;102102.97;5069910;28;20584;-72
2022/04/17 01:42:00;;;;;;;8.33;7.53;;;;;;;2.99;85.30;102105.56;5070007;28;20192;-72
2022/04/17 01:44:28;;;;;;;10.17;6.73;;;;;;;2.65;87.43;102101.47;5069781;28;20646;-75
2022/04/17 01:46:54;;;;;;;9.80;7.47;;;;;;;2.47;89.57;102104.09;5071376;28;20581;-71
2022/04/17 01:49:21;;;;;;;11.27;6.43;;;;;;;2.31;91.48;102107.25;5070064;28;20194;-71
2022/04/17 01:51:48;;;;;;;7.67;5.87;;;;;;;2.28;92.27;102100.44;5071758;28;20557;-72
2022/04/17 01:54:18;;;;;;;8.20;7.33;;;;;;;2.38;92.66;102105.38;5069569;28;20175;-81
2022/04/17 01:56:47;;;;;;;9.47;6.13;;;;;;;2.39;92.69;102097.06;5071017;28;20186;-72
2022/04/17 01:59:13;;;;;;;9.73;7.63;;;;;;;2.37;93.27;102092.94;5070939;28;20174;-73
2022/04/17 02:01:39;;;;;;;9.00;7.17;;;;;;;2.38;93.66;102090.00;5070004;28;20178;-72
2022/04/17 02:04:07;;;;;;;8.37;7.53;;;;;;;2.39;93.53;102091.66;5071087;28;20607;-72
2022/04/17 02:06:32;;;;;;;8.07;7.37;;;;;;;2.40;93.90;102087.09;5069470;28;20297;-77
2022/04/17 02:08:58;;;;;;;10.53;7.30;;;;;;;2.38;93.74;102091.88;5070789;28;20276;-72
2022/04/17 02:11:27;;;;;;;8.37;7.50;;;;;;;2.46;93.72;102082.69;5071014;28;20576;-74
2022/04/17 02:13:53;;;;;;;13.83;9.00;;;;;;;2.44;93.92;102079.41;5069889;28;20178;-72
2022/04/17 02:16:19;;;;;;;11.10;8.93;;;;;;;2.49;93.53;102072.31;5070721;28;20170;-72
2022/04/17 02:18:49;;;;;;;12.13;8.80;;;;;;;2.64;94.08;102082.81;5069391;28;20630;-72
2022/04/17 02:21:16;;;;;;;13.37;9.03;;;;;;;2.73;94.39;102078.78;5071063;28;20181;-75
2022/04/17 02:23:43;;;;;;;10.00;8.90;;;;;;;2.85;94.53;102068.09;5070840;28;20166;-72
2022/04/17 02:26:09;;;;;;;9.13;8.20;;;;;;;2.85;92.68;102057.31;5070622;28;20224;-73
2022/04/17 02:28:38;;;;;;;8.60;7.73;;;;;;;2.59;90.97;102056.47;5069581;28;20532;-72
2022/04/17 02:31:05;;;;;;;8.37;7.13;;;;;;;2.37;90.66;102055.16;5070687;28;20193;-72
2022/04/17 02:33:31;;;;;;;14.30;7.70;;;;;;;2.29;91.21;102050.03;5070917;28;20179;-72
2022/04/17 02:35:56;;;;;;;8.83;7.93;;;;;;;2.28;91.91;102051.91;5070697;28;20166;-72
2022/04/17 02:38:22;;;;;;;10.57;7.73;;;;;;;2.23;91.93;102050.91;5070530;28;20175;-73
2022/04/17 02:40:47;;;;;;;10.07;7.60;;;;;;;2.19;92.12;102050.50;5069309;28;20664;-81
2022/04/17 02:43:13;;;;;;;8.80;7.40;;;;;;;2.04;91.95;102048.09;5070558;28;20180;-73
2022/04/17 02:45:38;;;;;;;7.03;6.43;;;;;;;2.30;92.61;102049.81;5069180;28;20293;-72
2022/04/17 02:48:04;;;;;;;8.33;7.23;;;;;;;2.42;91.96;102046.41;5068983;28;20270;-76
2022/04/17 02:50:30;;;;;;;7.63;7.00;;;;;;;2.39;91.39;102053.09;5070512;28;20263;-71
2022/04/17 02:52:55;;;;;;;9.07;7.43;;;;;;;2.29;90.84;102053.53;5069295;28;20601;-73
2022/04/17 02:55:21;;;;;;;7.97;7.13;;;;;;;2.15;90.77;102054.66;5069177;28;20187;-72
2022/04/17 02:57:46;;;;;;;8.93;7.70;;;;;;;2.14;91.57;102057.56;5068916;28;20186;-73
2022/04/17 03:00:12;;;;;;;7.83;7.00;;;;;;;2.12;92.17;102060.50;5070392;28;20178;-72
2022/04/17 03:05:37;;;;;;;11.60;6.90;;;;;;;1.89;94.47;102044.03;5070911;28;20201;-73
2022/04/17 03:08:11;;;;;;;7.50;6.17;;;;;;;2.04;95.27;102040.03;5072803;28;20172;-75
2022/04/17 03:10:38;;;;;;;6.90;6.33;;;;;;;2.08;95.37;102046.63;5072953;28;20641;-72
2022/04/17 03:13:05;;;;;;;8.53;6.90;;;;;;;2.18;94.61;102034.56;5072837;28;20394;-72
2022/04/17 03:15:34;;;;;;;9.80;6.97;;;;;;;1.58;94.78;102042.88;5072990;28;20257;-79
2022/04/17 03:18:00;;;;;;;7.47;6.77;;;;;;;1.68;95.68;102042.44;5073860;28;20171;-75
2022/04/17 03:20:28;;;;;;;11.67;6.73;;;;;;;2.00;95.49;102046.03;5073937;28;20166;-73
2022/04/17 03:22:53;;;;;;;8.83;6.40;;;;;;;1.58;94.66;102033.97;5072613;28;20573;-73
2022/04/17 03:25:19;;;;;;;7.47;6.77;;;;;;;1.81;94.92;102036.19;5072523;28;20202;-72
2022/04/17 03:27:47;;;;;;;6.97;6.33;;;;;;;2.07;94.69;102033.38;5073909;28;20174;-78
2022/04/17 03:30:15;;;;;;;7.07;6.37;;;;;;;2.18;93.63;102030.00;5073812;28;20177;-73
2022/04/17 03:32:49;;;;;;;6.97;6.27;;;;;;;2.18;92.22;102023.78;5072496;28;20174;-73
2022/04/17 03:35:15;;;;;;;7.20;6.47;;;;;;;2.23;91.81;102018.53;5073781;28;20174;-75
2022/04/17 03:37:44;;;;;;;9.50;6.80;;;;;;;2.23;91.51;102015.84;5072746;28;20213;-72
2022/04/17 03:40:15;;;;;;;6.30;5.63;;;;;;;1.95;91.37;102010.81;5074043;28;20187;-74
2022/04/17 03:42:41;;;;;;;7.00;6.40;;;;;;;1.91;92.69;102009.63;5073761;28;20171;-73
2022/04/17 03:45:07;;;;;;;6.53;5.90;;;;;;;2.06;93.35;102010.16;5072419;28;20445;-72
2022/04/17 03:47:33;;;;;;;6.67;6.07;;;;;;;2.21;93.00;102015.25;5074091;28;20170;-78
2022/04/17 03:49:59;;;;;;;7.57;5.70;;;;;;;2.25;92.50;102017.28;5072514;28;20652;-73
2022/04/17 03:52:25;;;;;;;6.57;5.97;;;;;;;2.26;91.73;102021.63;5073946;28;20606;-76
2022/04/17 03:54:50;;;;;;;7.57;6.07;;;;;;;2.11;90.63;102013.00;5073762;28;20175;-75
2022/04/17 03:57:15;;;;;;;6.17;5.57;;;;;;;1.89;90.11;102014.41;5072241;28;20256;-74
2022/04/17 03:59:41;;;;;;;6.20;5.67;;;;;;;1.68;90.70;102016.34;5073674;28;20266;-72
2022/04/17 04:02:07;;;;;;;6.73;6.03;;;;;;;1.62;91.54;102005.59;5073755;28;20245;-74
2022/04/17 04:04:33;;;;;;;6.43;5.83;;;;;;;1.65;93.06;102000.59;5072169;28;20202;-74
2022/04/17 04:06:58;;;;;;;6.07;5.47;;;;;;;1.58;94.04;101999.78;5071757;28;20242;-73
2022/04/17 04:09:24;;;;;;;6.97;5.67;;;;;;;1.47;94.59;102006.69;5073416;28;20670;-79
2022/04/17 04:11:49;;;;;;;7.47;6.87;;;;;;;1.33;95.20;102009.63;5073563;28;20258;-73
2022/04/17 04:14:14;;;;;;;9.20;6.20;;;;;;;1.09;96.68;102011.94;5073448;28;20664;-77
2022/04/17 04:16:40;;;;;;;6.47;5.87;;;;;;;1.12;97.45;102003.44;5071953;28;20176;-72
2022/04/17 04:19:06;;;;;;;7.33;6.73;;;;;;;1.41;97.58;101999.44;5073333;28;20201;-76
2022/04/17 04:21:31;;;;;;;7.70;7.00;;;;;;;1.25;96.78;102001.78;5073392;28;20177;-75
2022/04/17 04:23:57;;;;;;;6.77;6.00;;;;;;;1.03;97.24;101998.53;5073292;28;20179;-74
2022/04/17 04:26:22;;;;;;;7.63;6.97;;;;;;;1.28;97.72;101998.66;5071690;28;20277;-77
2022/04/17 04:28:47;;;;;;;8.20;6.33;;;;;;;1.56;97.75;101987.59;5071973;28;20231;-75
2022/04/17 04:31:14;;;;;;;7.27;6.67;;;;;;;1.63;96.94;101978.44;5072809;28;20619;-72
2022/04/17 04:33:42;;;;;;;8.03;6.00;;;;;;;1.70;95.81;101981.09;5071824;28;20205;-72
2022/04/17 04:36:11;;;;;;;7.30;6.40;;;;;;;1.48;94.83;101970.63;5071858;28;20686;-75
2022/04/17 04:38:38;;;;;;;7.20;6.03;;;;;;;1.33;95.36;101974.63;5073156;28;20163;-73
2022/04/17 04:41:04;;;;;;;6.40;5.90;;;;;;;1.31;95.30;101974.84;5071539;28;20221;-76
2022/04/17 04:43:30;;;;;;;8.93;6.60;;;;;;;1.29;95.96;101970.69;5072812;28;20194;-73
2022/04/17 04:46:07;;;;;;;6.87;6.27;;;;;;;1.44;95.66;101974.78;5071510;28;20198;-73
2022/04/17 04:51:29;;;;;;;6.33;5.73;;;;;;;1.53;94.92;101983.47;5073043;28;20253;-76
2022/04/17 04:53:56;;;;;;;7.27;6.57;;;;;;;1.61;94.74;101985.91;5072638;28;20292;-76
2022/04/17 04:56:23;;;;;;;10.57;6.33;;;;;;;1.70;94.77;101987.31;5072481;28;20244;-78
2022/04/17 04:58:49;;;;;;;6.80;6.10;;;;;;;1.97;94.32;101995.25;5071017;28;20184;-78
2022/04/17 05:01:15;;;;;;;12.63;7.43;;;;;;;1.94;94.21;101971.44;5071114;28;20210;-81
2022/04/17 05:03:41;;;;;;;7.47;6.73;;;;;;;2.03;92.97;101978.25;5072924;28;20178;-75
2022/04/17 05:06:07;;;;;;;7.77;7.00;;;;;;;1.97;92.57;101979.09;5072316;28;20252;-79
2022/04/17 05:08:33;;;;;;;7.40;6.57;;;;;;;2.00;93.50;101986.75;5070838;28;20205;-73
2022/04/17 05:10:59;;;;;;;9.70;6.20;;;;;;;2.09;94.05;101982.75;5070961;28;20630;-76
2022/04/17 05:13:24;;;;;;;8.60;6.30;;;;;;;2.29;94.01;101994.22;5072287;28;20198;-72
2022/04/17 05:15:49;;;;;;;8.07;7.27;;;;;;;2.42;93.25;101987.09;5070984;28;20266;-73
2022/04/17 05:18:15;;;;;;;8.03;7.17;;;;;;;2.48;93.23;101988.91;5072053;28;20178;-72
2022/04/17 05:20:40;;;;;;;7.93;7.10;;;;;;;2.53;93.31;101987.22;5071958;28;20220;-74
2022/04/17 05:23:22;;;;;;;8.50;7.70;;;;;;;2.52;92.92;101988.25;5071836;28;20218;-72
2022/04/17 05:25:50;;;;;;;10.03;7.67;;;;;;;2.61;92.19;102005.00;5071925;28;20677;-76
2022/04/17 05:28:16;;;;;;;11.20;7.57;;;;;;;2.67;90.99;102004.13;5069931;28;20249;-72
2022/04/17 05:30:42;;;;;;;10.40;7.57;;;;;;;2.78;90.75;102010.66;5071908;28;20245;-73
2022/04/17 05:33:08;;;;;;;13.50;7.47;;;;;;;2.88;90.31;102002.88;5071867;28;20177;-77
2022/04/17 05:35:34;;;;;;;6.43;5.93;;;;;;;3.05;89.39;101998.59;5070443;28;20185;-73
2022/04/17 05:37:59;;;;;;;8.93;6.97;;;;;;;3.12;88.19;101999.31;5071426;28;20185;-74
2022/04/17 05:40:25;;;;;;;8.03;6.80;;;;;;;3.10;88.16;101993.34;5071770;28;20293;-73
2022/04/17 05:42:51;;;;;;;12.07;7.73;;;;;;;3.11;89.20;101999.56;5067962;28;20185;-72
2022/04/17 05:45:17;;;;;;;9.43;7.83;;;;;;;3.04;88.64;101996.94;5061776;28;20303;-72
2022/04/17 05:47:43;;;;;;;8.43;7.73;;;;;;;3.14;88.46;102001.81;5071253;28;20181;-73
2022/04/17 05:50:09;;;;;;;9.57;8.43;;;;;;;3.22;88.14;102013.16;5071765;28;20651;-74
2022/04/17 05:52:34;;;;;;;8.87;7.17;;;;;;;3.34;87.66;102009.72;5071618;28;20401;-73
2022/04/17 05:55:00;;;;;;;7.87;7.17;;;;;;;3.43;87.20;102017.28;5071916;28;20675;-74
2022/04/17 05:57:25;;;;;;;8.67;7.20;;;;;;;3.50;87.75;102017.22;5071575;28;20182;-73
2022/04/17 05:59:51;;;;;;;8.77;7.50;;;;;;;3.61;88.15;102023.72;5071160;28;20265;-73
2022/04/17 06:02:17;;;;;;;7.90;7.10;;;;;;;3.69;88.49;102020.72;5071252;28;20178;-74
2022/04/17 06:04:42;;;;;;;7.83;7.03;;;;;;;3.74;87.77;102012.75;5071302;28;20178;-74
2022/04/17 06:07:11;;;;;;;11.00;8.47;;;;;;;3.88;87.33;102015.06;5071404;28;20533;-75
2022/04/17 06:09:36;;;;;;;8.63;7.83;;;;;;;3.92;85.63;102014.63;5071401;28;20170;-73
2022/04/17 06:12:02;;;;;;;12.23;9.53;;;;;;;4.04;85.01;102015.47;5069704;28;20182;-72
2022/04/17 06:14:28;;;;;;;13.77;9.40;;;;;;;4.18;83.42;102017.75;5069873;28;20175;-73
2022/04/17 06:16:53;;;;;;;11.83;9.60;;;;;;;4.12;80.40;102016.00;5069810;28;20653;-78
2022/04/17 06:19:19;;;;;;;9.37;8.43;;;;;;;4.20;79.45;102014.84;5071396;28;20170;-72
2022/04/17 06:21:44;;;;;;;9.63;8.47;;;;;;;4.28;80.27;102017.22;5069951;28;20167;-77
2022/04/17 06:24:09;;;;;;;9.33;8.43;;;;;;;4.31;80.61;102018.63;5071193;28;20178;-78
2022/04/17 06:26:35;;;;;;;10.10;8.60;;;;;;;4.40;81.45;102015.38;5069556;28;20573;-74
2022/04/17 06:29:08;;;;;;;10.17;9.13;;;;;;;4.45;82.26;102009.25;5071097;28;20167;-75
2022/04/17 06:31:34;;;;;;;10.23;9.10;;;;;;;4.55;81.94;101998.69;5069809;28;20179;-72
2022/04/17 06:33:59;;;;;;;9.57;8.27;;;;;;;4.57;80.98;102006.59;5071101;28;20304;-73
2022/04/17 06:36:25;;;;;;;8.73;8.03;;;;;;;4.65;79.71;102009.78;5070837;28;20269;-73
2022/04/17 06:38:50;;;;;;;8.50;7.60;;;;;;;4.70;79.92;102009.91;5069241;28;20166;-72
2022/04/17 06:41:16;;;;;;;8.87;7.60;;;;;;;4.70;79.24;102007.19;5072871;28;20223;-73
2022/04/17 06:43:41;;;;;;;8.43;7.63;;;;;;;4.68;77.12;102006.59;5074891;28;20175;-73
2022/04/17 06:46:06;;;;;;;9.10;7.67;;;;;;;4.88;76.98;102008.97;5075112;28;20646;-74
2022/04/17 06:48:32;;;;;;;6.50;5.90;;;;;;;4.86;76.45;102007.56;5073511;28;20638;-72
2022/04/17 06:50:57;;;;;;;7.57;6.87;;;;;;;4.87;76.66;102001.91;5075187;28;20178;-72
2022/04/17 06:53:23;;;;;;;6.77;6.17;;;;;;;4.90;76.19;102004.13;5074932;28;20174;-76
2022/04/17 06:55:49;;;;;;;6.97;6.37;;;;;;;4.91;75.93;102010.38;5073546;28;20686;-74
2022/04/17 06:58:15;;;;;;;6.43;5.83;;;;;;;4.78;76.37;102008.75;5073485;28;20618;-72
2022/04/17 07:00:41;;;;;;;6.13;5.63;;;;;;;4.80;76.80;102012.03;5074851;28;20655;-72
2022/04/17 07:03:06;;;;;;;6.60;5.60;;;;;;;5.04;77.75;102010.13;5074422;28;20167;-76
2022/04/17 07:05:32;;;;;;;6.93;6.33;;;;;;;5.14;77.38;102010.38;5073155;28;20693;-73
2022/04/17 07:07:58;;;;;;;7.50;6.80;;;;;;;5.17;77.98;102000.94;5074490;28;20171;-74
2022/04/17 07:10:24;;;;;;;6.33;5.83;;;;;;;5.31;78.54;102013.19;5074661;28;20163;-72
2022/04/17 07:12:51;;;;;;;6.77;6.10;;;;;;;5.50;78.00;102006.59;5074434;28;20167;-72
2022/04/17 07:15:17;;;;;;;7.43;6.73;;;;;;;5.62;77.25;102009.25;5074554;28;20239;-76
2022/04/17 07:17:42;;;;;;;6.50;5.90;;;;;;;5.72;76.66;102004.03;5074326;28;20627;-73
2022/04/17 07:20:09;;;;;;;7.10;6.47;;;;;;;5.78;76.90;101997.63;5073197;28;20185;-76
2022/04/17 07:22:36;;;;;;;8.50;5.60;;;;;;;5.89;76.34;101995.94;5072966;28;20170;-73
2022/04/17 07:25:03;;;;;;;6.23;5.73;;;;;;;6.07;76.28;101990.34;5074183;28;20177;-75
2022/04/17 07:27:38;;;;;;;5.90;5.40;;;;;;;6.39;75.38;101996.09;5074035;28;20526;-75
2022/04/17 07:30:16;;;;;;;6.37;5.13;;;;;;;6.52;73.48;101998.50;5074202;28;20204;-76
2022/04/17 07:32:44;;;;;;;5.30;4.80;;;;;;;6.76;72.64;101999.16;5072823;28;20786;-75
2022/04/17 07:35:10;;;;;;;5.47;4.97;;;;;;;6.83;71.84;101988.13;5072789;28;20186;-75
2022/04/17 07:37:36;;;;;;;6.47;5.17;;;;;;;6.94;71.11;101989.91;5072629;28;20509;-77
2022/04/17 07:40:19;;;;;;;6.00;5.33;;;;;;;7.08;70.02;101983.06;5073952;28;20182;-72
2022/04/17 07:42:45;;;;;;;5.47;5.07;;;;;;;7.26;68.78;101989.31;5074182;28;20158;-75
2022/04/17 07:45:12;;;;;;;6.10;5.50;;;;;;;7.22;67.67;101986.25;5072407;28;20205;-75
2022/04/17 07:47:37;;;;;;;6.20;5.60;;;;;;;7.32;67.87;101978.22;5072336;28;20187;-74
2022/04/17 07:50:06;;;;;;;6.60;4.70;;;;;;;7.47;66.29;101985.75;5072442;28;20614;-76
2022/04/17 07:52:33;;;;;;;6.13;5.60;;;;;;;7.36;66.62;101981.25;5072965;28;20519;-75
2022/04/17 07:54:58;;;;;;;5.03;4.47;;;;;;;7.54;66.02;101975.53;5072204;28;20622;-75
2022/04/17 07:57:24;;;;;;;5.73;4.77;;;;;;;7.61;64.96;101972.59;5073246;28;20228;-75
2022/04/17 07:59:50;;;;;;;6.70;5.23;;;;;;;7.65;64.36;101982.72;5072353;28;20174;-75
2022/04/17 08:02:22;;;;;;;5.57;4.77;;;;;;;7.78;64.56;101973.34;5073618;28;20171;-72
2022/04/17 08:04:51;;;;;;;4.97;4.57;;;;;;;7.79;63.91;101977.72;5073458;28;20611;-74
2022/04/17 08:07:20;;;;;;;5.73;5.03;;;;;;;7.78;63.09;101965.19;5072008;28;20183;-74
2022/04/17 08:09:46;;;;;;;5.73;4.73;;;;;;;7.90;63.43;101968.59;5070064;28;20194;-72
2022/04/17 08:12:11;;;;;;;4.87;4.47;;;;;;;8.08;63.04;101964.69;5071999;28;20210;-75
2022/04/17 08:14:36;;;;;;;4.43;4.03;;;;;;;7.98;62.10;101962.69;5071955;28;20182;-73
2022/04/17 08:17:02;;;;;;;5.80;4.73;;;;;;;8.10;62.01;101959.81;5073344;28;20630;-74
2022/04/17 08:19:29;;;;;;;5.00;3.90;;;;;;;8.14;61.13;101955.50;5071792;28;20243;-76
2022/04/17 08:21:55;;;;;;;4.17;3.80;;;;;;;8.27;60.70;101948.81;5071850;28;20185;-75
2022/04/17 08:24:20;;;;;;;5.70;5.20;;;;;;;8.45;61.10;101944.91;5071720;28;20254;-74
2022/04/17 08:26:46;;;;;;;4.77;4.33;;;;;;;8.49;60.94;101930.50;5071689;28;20194;-75
2022/04/17 08:29:11;;;;;;;4.83;4.40;;;;;;;8.56;59.62;101933.84;5073202;28;20634;-73
2022/04/17 08:31:36;;;;;;;4.43;3.77;;;;;;;8.65;57.09;101928.69;5073049;28;20213;-75
2022/04/17 08:34:02;;;;;;;3.67;3.37;;;;;;;8.78;57.66;101927.44;5073094;28;20167;-72
2022/04/17 08:36:28;;;;;;;4.53;4.17;;;;;;;8.75;57.84;101917.06;5069752;28;20191;-73
2022/04/17 08:38:53;;;;;;;4.43;4.10;;;;;;;8.83;56.53;101919.31;5072238;28;20554;-73
2022/04/17 08:41:20;;;;;;;3.47;3.17;;;;;;;8.78;54.49;101920.06;5071351;28;20307;-75
2022/04/17 08:43:46;;;;;;;3.33;3.10;;;;;;;8.87;53.08;101904.06;5072684;28;20253;-77
2022/04/17 08:46:12;;;;;;;7.57;3.03;;;;;;;9.09;52.78;101909.34;5072628;28;20209;-79
2022/04/17 08:48:38;;;;;;;4.17;3.17;;;;;;;9.19;54.29;101915.66;5072654;28;20623;-81
2022/04/17 08:51:05;;;;;;;3.00;2.37;;;;;;;9.27;51.18;101908.91;5071174;28;20228;-77
2022/04/17 08:53:34;;;;;;;2.63;2.43;;;;;;;9.57;50.31;101905.47;5072655;28;20619;-76
2022/04/17 08:56:00;;;;;;;2.63;2.43;;;;;;;9.82;49.50;101901.94;5071248;28;20186;-79
2022/04/17 08:58:26;;;;;;;2.97;2.77;;;;;;;9.70;48.80;101891.31;5072415;28;20258;-76
2022/04/17 09:00:52;;;;;;;4.10;3.70;;;;;;;9.74;50.57;101891.56;5072591;28;20313;-78
2022/04/17 09:03:17;;;;;;;4.97;3.47;;;;;;;9.86;53.62;101894.06;5071423;28;20178;-76
2022/04/17 09:05:43;;;;;;;4.07;3.40;;;;;;;9.84;51.63;101891.59;5070758;28;20510;-78
2022/04/17 09:08:17;;;;;;;3.83;3.53;;;;;;;9.84;52.81;101889.69;5070912;28;20542;-81
2022/04/17 09:10:53;;;;;;;3.00;2.80;;;;;;;9.86;50.85;101886.69;5070904;28;20233;-75
2022/04/17 09:13:29;;;;;;;3.17;2.97;;;;;;;10.05;49.43;101876.88;5068375;28;20186;-73
2022/04/17 09:15:55;;;;;;;1.50;1.40;;;;;;;10.28;43.64;101875.53;5071917;28;20182;-72
2022/04/17 09:18:21;;;;;;;3.00;2.73;;;;;;;10.50;51.22;101872.50;5071821;28;20531;-73
2022/04/17 09:20:47;;;;;;;3.57;3.23;;;;;;;10.47;52.01;101873.06;5071717;28;20528;-75
2022/04/17 09:23:13;;;;;;;2.17;1.80;;;;;;;10.51;46.42;101868.66;5071960;28;20182;-73
2022/04/17 09:25:38;;;;;;;1.30;0.90;;;;;;;10.64;40.89;101865.38;5071786;28;20593;-73
2022/04/17 09:28:08;;;;;;;1.47;1.07;;;;;;;10.72;39.71;101858.53;5070535;28;20174;-74
2022/04/17 09:30:38;;;;;;;1.10;1.00;;;;;;;10.71;38.44;101848.69;5071697;28;20585;-72
2022/04/17 09:33:06;;;;;;;1.27;1.00;;;;;;;10.76;38.47;101853.31;5071464;28;20171;-74
2022/04/17 09:35:32;;;;;;;4.33;1.03;;;;;;;10.78;38.35;101857.41;5071830;28;20231;-74
2022/04/17 09:37:59;;;;;;;0.80;0.80;;;;;;;10.83;37.48;101854.66;5069933;28;20201;-74
2022/04/17 09:40:26;;;;;;;2.07;1.30;;;;;;;11.07;39.83;101854.03;5070009;28;20187;-77
2022/04/17 09:43:07;;;;;;;1.30;1.20;;;;;;;11.12;38.66;101841.13;5070739;28;20229;-72
2022/04/17 09:45:33;;;;;;;2.00;1.80;;;;;;;11.09;38.61;101841.69;5071148;28;20206;-72
2022/04/17 09:47:58;;;;;;;1.80;1.53;;;;;;;10.89;38.11;101839.06;5071560;28;20185;-72
2022/04/17 09:50:34;;;;;;;2.57;1.43;;;;;;;11.04;38.22;101828.06;5071483;28;20175;-72
2022/04/17 09:53:05;;;;;;;2.07;1.50;;;;;;;10.90;36.64;101822.38;5070044;28;20524;-74
2022/04/17 09:55:31;;;;;;;1.57;1.27;;;;;;;11.09;38.56;101824.47;5071439;28;20159;-74
2022/04/17 09:57:58;;;;;;;1.33;1.23;;;;;;;11.10;37.74;101815.16;5071313;28;20175;-73
2022/04/17 10:00:24;;;;;;;1.53;1.33;;;;;;;10.98;38.47;101812.75;5072240;28;20175;-72
2022/04/17 10:02:50;;;;;;;3.67;2.13;;;;;;;10.72;40.27;101803.84;5072304;28;20320;-72
2022/04/17 10:05:17;;;;;;;1.67;1.53;;;;;;;10.91;40.57;101806.78;5071054;28;20271;-72
2022/04/17 10:07:44;;;;;;;1.87;1.77;;;;;;;10.98;41.16;101799.91;5070855;28;20167;-73
2022/04/17 10:10:11;;;;;;;3.10;1.80;;;;;;;11.21;41.37;101803.91;5069644;28;20171;-72
2022/04/17 10:12:39;;;;;;;2.07;1.90;;;;;;;11.16;41.86;101797.66;5068572;28;20269;-73
2022/04/17 10:15:06;;;;;;;1.90;1.70;;;;;;;11.15;40.46;101788.63;5070710;28;20941;-72
2022/04/17 10:17:33;;;;;;;1.80;1.70;;;;;;;11.18;41.07;101793.53;5070604;28;20166;-72
2022/04/17 10:20:03;;;;;;;1.70;1.40;;;;;;;11.26;39.95;101786.63;5070253;28;20178;-72
2022/04/17 10:22:33;;;;;;;1.33;1.23;;;;;;;11.33;39.27;101779.75;5070690;28;20250;-73
2022/04/17 10:24:59;;;;;;;1.37;1.20;;;;;;;11.41;39.56;101774.75;5070279;28;20603;-73
2022/04/17 10:27:28;;;;;;;1.40;1.30;;;;;;;11.26;38.18;101776.50;5070073;28;20171;-71
2022/04/17 10:30:03;;;;;;;1.60;1.30;;;;;;;11.26;38.38;101767.47;5070215;28;20170;-72
2022/04/17 10:32:28;;;;;;;2.50;1.23;;;;;;;11.54;38.07;101761.25;5070335;28;20174;-72
2022/04/17 10:35:06;;;;;;;1.60;1.50;;;;;;;11.60;39.04;101760.13;5070101;28;20167;-72
2022/04/17 10:37:47;;;;;;;1.33;1.23;;;;;;;11.74;38.39;101759.47;5068787;28;20257;-72
2022/04/17 10:40:13;;;;;;;3.93;1.63;;;;;;;12.05;38.13;101749.09;5070070;28;20521;-72
2022/04/17 10:42:55;;;;;;;1.20;1.10;;;;;;;12.08;37.50;101757.53;5070159;28;20224;-72
2022/04/17 10:45:22;;;;;;;1.23;1.13;;;;;;;11.79;37.71;101745.75;5068985;28;20564;-72
2022/04/17 10:48:01;;;;;;;1.67;1.03;;;;;;;12.07;38.35;101750.44;5069865;28;20189;-72
2022/04/17 10:50:29;;;;;;;1.20;1.10;;;;;;;12.17;36.10;101741.31;5070078;28;20522;-77
2022/04/17 10:52:55;;;;;;;0.60;0.57;;;;;;;12.21;37.22;101739.59;5070083;28;20174;-72
2022/04/17 10:55:20;;;;;;;0.80;0.80;;;;;;;12.29;35.70;101741.69;5068744;28;20206;-73
2022/04/17 10:57:49;;;;;;;0.50;0.50;;;;;;;12.41;36.15;101736.63;5068561;28;20206;-72
2022/04/17 11:00:36;;;;;;;0.50;0.50;;;;;;;12.64;35.70;101721.28;5069996;28;20175;-72
2022/04/17 11:03:09;;;;;;;0.50;0.50;;;;;;;12.54;34.40;101704.13;5069907;28;20448;-72
2022/04/17 11:08:24;;;;;;;0.67;0.60;;;;;;;12.44;35.28;101710.56;5069809;28;20725;-72
2022/04/17 11:10:56;;;;;;;1.17;0.60;;;;;;;12.40;34.61;101704.84;5070176;28;20174;-72
2022/04/17 11:13:25;;;;;;;0.50;0.50;;;;;;;12.27;34.04;101713.78;5069903;28;20175;-72
2022/04/17 11:16:05;;;;;;;1.40;0.70;;;;;;;12.66;36.53;101705.34;5069856;28;20209;-71
2022/04/17 11:18:31;;;;;;;0.93;0.90;;;;;;;12.40;34.88;101701.28;5069801;28;20240;-72
2022/04/17 11:20:58;;;;;;;0.63;0.63;;;;;;;12.58;35.11;101691.47;5070514;28;20171;-72
2022/04/17 11:23:48;;;;;;;0.80;0.70;;;;;;;12.66;35.23;101693.56;5070871;28;20241;-72
2022/04/17 11:26:14;;;;;;;0.80;0.60;;;;;;;12.87;35.97;101694.91;5068772;28;20697;-73
2022/04/17 11:28:40;;;;;;;0.60;0.60;;;;;;;13.08;34.74;101689.94;5072045;28;20189;-73
2022/04/17 11:31:05;;;;;;;0.87;0.77;;;;;;;13.06;34.54;101689.44;5072392;28;20175;-72
2022/04/17 11:33:31;;;;;;;0.90;0.70;;;;;;;12.80;34.52;101689.78;5073804;28;20176;-72
2022/04/17 11:35:57;;;;;;;0.73;0.70;;;;;;;12.83;35.44;101677.41;5071721;28;20179;-71
2022/04/17 11:38:23;;;;;;;0.90;0.70;;;;;;;12.98;36.75;101679.94;5071810;28;20175;-72
2022/04/17 11:40:49;;;;;;;1.70;0.87;;;;;;;12.90;35.30;101671.56;5072048;28;20236;-72